Terminal Aerodrome Forecast
Issued by NWS

Home | Current Version | Previous Version | Text Only | Print | Product List | Glossary On
Versions: 1 2 3 4 5 6 7 8 9 10 11 12 13 14 15 16 17 18 19 20 21 22 23 24 25
000
FTUS43 KDLH 261131
TAFBRD
TAF
KBRD 261131Z 2612/2712 21007KT P6SM VCSH BKN100
      TEMPO 2612/2615 6SM TSRA BR BKN050CB
     FM261700 28009KT P6SM SCT040 BKN100
     FM270000 VRB03KT P6SM VCSH BKN080
      TEMPO 2702/2706 5SM TSRA BR BKN035CB
     FM270600 VRB03KT 6SM BR VCTS BKN060CB=

USA.gov is the U.S. government's official web portal to all federal, state and local government web resources and services.